sensor_id;sensor_type;location;lat;lon;timestamp;P1;durP1;ratioP1;P2;durP2;ratioP2
8401;SDS011;4238;48.404;9.498;2024-03-23T05:02:53;3.20;;;3.00;;
8401;SDS011;4238;48.404;9.498;2024-03-23T05:05:18;3.27;;;2.97;;
8401;SDS011;4238;48.404;9.498;2024-03-23T05:07:45;3.30;;;3.00;;
8401;SDS011;4238;48.404;9.498;2024-03-23T05:10:11;4.10;;;3.53;;
8401;SDS011;4238;48.404;9.498;2024-03-23T05:12:38;3.10;;;2.60;;
8401;SDS011;4238;48.404;9.498;2024-03-23T05:15:05;4.93;;;3.33;;
8401;SDS011;4238;48.404;9.498;2024-03-23T05:17:34;3.90;;;3.40;;
8401;SDS011;4238;48.404;9.498;2024-03-23T05:20:00;3.10;;;2.90;;
8401;SDS011;4238;48.404;9.498;2024-03-23T05:22:28;3.20;;;2.90;;
8401;SDS011;4238;48.404;9.498;2024-03-23T05:24:53;4.07;;;3.27;;
8401;SDS011;4238;48.404;9.498;2024-03-23T05:27:21;3.50;;;3.07;;
8401;SDS011;4238;48.404;9.498;2024-03-23T05:29:46;3.47;;;3.17;;
8401;SDS011;4238;48.404;9.498;2024-03-23T05:32:13;3.50;;;3.20;;
8401;SDS011;4238;48.404;9.498;2024-03-23T05:34:40;3.40;;;3.10;;
8401;SDS011;4238;48.404;9.498;2024-03-23T05:37:07;3.50;;;2.90;;
8401;SDS011;4238;48.404;9.498;2024-03-23T05:39:33;3.97;;;3.00;;
8401;SDS011;4238;48.404;9.498;2024-03-23T05:42:00;3.70;;;3.20;;
8401;SDS011;4238;48.404;9.498;2024-03-23T05:44:26;3.70;;;3.40;;
8401;SDS011;4238;48.404;9.498;2024-03-23T05:46:53;3.67;;;3.37;;
8401;SDS011;4238;48.404;9.498;2024-03-23T05:49:18;3.10;;;2.90;;
8401;SDS011;4238;48.404;9.498;2024-03-23T05:51:47;2.97;;;2.77;;
8401;SDS011;4238;48.404;9.498;2024-03-23T05:54:13;3.40;;;3.10;;
8401;SDS011;4238;48.404;9.498;2024-03-23T05:56:40;3.73;;;3.43;;
8401;SDS011;4238;48.404;9.498;2024-03-23T05:59:07;3.50;;;3.13;;
8401;SDS011;4238;48.404;9.498;2024-03-23T06:01:34;3.43;;;3.13;;
8401;SDS011;4238;48.404;9.498;2024-03-23T06:04:00;4.78;;;3.28;;
8401;SDS011;4238;48.404;9.498;2024-03-23T06:06:27;2.73;;;2.53;;
8401;SDS011;4238;48.404;9.498;2024-03-23T06:08:56;2.63;;;2.40;;
8401;SDS011;4238;48.404;9.498;2024-03-23T06:11:23;3.80;;;2.50;;
8401;SDS011;4238;48.404;9.498;2024-03-23T06:13:49;2.53;;;2.37;;
8401;SDS011;4238;48.404;9.498;2024-03-23T06:16:16;3.23;;;2.67;;
8401;SDS011;4238;48.404;9.498;2024-03-23T06:18:42;2.70;;;2.50;;
8401;SDS011;4238;48.404;9.498;2024-03-23T06:21:12;3.00;;;2.80;;
8401;SDS011;4238;48.404;9.498;2024-03-23T06:23:39;2.53;;;2.27;;
8401;SDS011;4238;48.404;9.498;2024-03-23T06:26:08;3.00;;;2.80;;
8401;SDS011;4238;48.404;9.498;2024-03-23T06:28:35;6.67;;;3.77;;
8401;SDS011;4238;48.404;9.498;2024-03-23T06:31:02;3.03;;;2.83;;
8401;SDS011;4238;48.404;9.498;2024-03-23T06:33:28;3.73;;;3.43;;
8401;SDS011;4238;48.404;9.498;2024-03-23T06:35:55;4.17;;;3.77;;
8401;SDS011;4238;48.404;9.498;2024-03-23T06:38:21;5.57;;;5.03;;
8401;SDS011;4238;48.404;9.498;2024-03-23T06:40:48;7.00;;;6.20;;
8401;SDS011;4238;48.404;9.498;2024-03-23T06:43:17;10.13;;;7.53;;
8401;SDS011;4238;48.404;9.498;2024-03-23T06:45:44;5.57;;;5.00;;
8401;SDS011;4238;48.404;9.498;2024-03-23T06:48:17;3.50;;;3.20;;
8401;SDS011;4238;48.404;9.498;2024-03-23T06:50:44;4.47;;;4.07;;
8401;SDS011;4238;48.404;9.498;2024-03-23T06:53:11;9.40;;;6.70;;
8401;SDS011;4238;48.404;9.498;2024-03-23T06:55:39;5.30;;;4.50;;
8401;SDS011;4238;48.404;9.498;2024-03-23T06:58:05;5.77;;;5.17;;
8401;SDS011;4238;48.404;9.498;2024-03-23T07:00:33;10.60;;;9.00;;
8401;SDS011;4238;48.404;9.498;2024-03-23T07:03:00;3.97;;;3.57;;
8401;SDS011;4238;48.404;9.498;2024-03-23T07:05:28;3.60;;;3.30;;
8401;SDS011;4238;48.404;9.498;2024-03-23T07:07:54;5.23;;;4.83;;
8401;SDS011;4238;48.404;9.498;2024-03-23T07:10:21;3.03;;;2.77;;
8401;SDS011;4238;48.404;9.498;2024-03-23T07:12:47;3.37;;;3.07;;
8401;SDS011;4238;48.404;9.498;2024-03-23T07:15:14;3.47;;;3.17;;
8401;SDS011;4238;48.404;9.498;2024-03-23T07:17:42;2.70;;;2.50;;
8401;SDS011;4238;48.404;9.498;2024-03-23T07:20:12;3.13;;;2.90;;
8401;SDS011;4238;48.404;9.498;2024-03-23T07:22:39;2.70;;;2.50;;
8401;SDS011;4238;48.404;9.498;2024-03-23T07:25:06;1.83;;;1.73;;
8401;SDS011;4238;48.404;9.498;2024-03-23T07:27:32;2.07;;;1.90;;
8401;SDS011;4238;48.404;9.498;2024-03-23T07:30:00;1.20;;;1.20;;
8401;SDS011;4238;48.404;9.498;2024-03-23T07:32:26;1.57;;;1.47;;
8401;SDS011;4238;48.404;9.498;2024-03-23T07:34:55;2.20;;;1.27;;
8401;SDS011;4238;48.404;9.498;2024-03-23T07:37:21;0.97;;;0.97;;
8401;SDS011;4238;48.404;9.498;2024-03-23T07:39:48;1.20;;;1.10;;
8401;SDS011;4238;48.404;9.498;2024-03-23T07:42:15;1.57;;;1.47;;
8401;SDS011;4238;48.404;9.498;2024-03-23T07:44:41;1.33;;;1.23;;
8401;SDS011;4238;48.404;9.498;2024-03-23T07:47:11;1.80;;;1.53;;
8401;SDS011;4238;48.404;9.498;2024-03-23T07:49:38;1.60;;;1.50;;
8401;SDS011;4238;48.404;9.498;2024-03-23T07:52:06;0.90;;;0.90;;
8401;SDS011;4238;48.404;9.498;2024-03-23T07:54:34;0.90;;;0.90;;
8401;SDS011;4238;48.404;9.498;2024-03-23T07:57:00;1.13;;;1.00;;
8401;SDS011;4238;48.404;9.498;2024-03-23T07:59:26;0.87;;;0.87;;
8401;SDS011;4238;48.404;9.498;2024-03-23T08:01:53;0.70;;;0.70;;
8401;SDS011;4238;48.404;9.498;2024-03-23T08:04:21;1.70;;;1.10;;
8401;SDS011;4238;48.404;9.498;2024-03-23T08:06:50;1.03;;;1.03;;
8401;SDS011;4238;48.404;9.498;2024-03-23T08:09:22;1.20;;;1.20;;
8401;SDS011;4238;48.404;9.498;2024-03-23T08:14:59;0.93;;;0.90;;
8401;SDS011;4238;48.404;9.498;2024-03-23T08:17:28;2.20;;;2.10;;
8401;SDS011;4238;48.404;9.498;2024-03-23T08:22:59;0.63;;;0.63;;
8401;SDS011;4238;48.404;9.498;2024-03-23T08:25:53;1.10;;;1.07;;
8401;SDS011;4238;48.404;9.498;2024-03-23T08:28:25;1.13;;;1.13;;
8401;SDS011;4238;48.404;9.498;2024-03-23T08:30:55;0.70;;;0.70;;
8401;SDS011;4238;48.404;9.498;2024-03-23T08:33:25;0.70;;;0.70;;
8401;SDS011;4238;48.404;9.498;2024-03-23T08:35:55;0.83;;;0.83;;
8401;SDS011;4238;48.404;9.498;2024-03-23T08:38:30;0.53;;;0.53;;
8401;SDS011;4238;48.404;9.498;2024-03-23T08:41:14;0.97;;;0.90;;
8401;SDS011;4238;48.404;9.498;2024-03-23T08:44:13;1.40;;;0.87;;
8401;SDS011;4238;48.404;9.498;2024-03-23T08:46:45;2.17;;;0.93;;
8401;SDS011;4238;48.404;9.498;2024-03-23T08:52:20;2.77;;;1.60;;
8401;SDS011;4238;48.404;9.498;2024-03-23T08:54:52;1.83;;;1.67;;
8401;SDS011;4238;48.404;9.498;2024-03-23T08:57:46;1.40;;;1.27;;
8401;SDS011;4238;48.404;9.498;2024-03-23T09:00:19;2.33;;;1.83;;
8401;SDS011;4238;48.404;9.498;2024-03-23T09:02:51;2.23;;;2.03;;
8401;SDS011;4238;48.404;9.498;2024-03-23T09:05:30;1.63;;;1.53;;
8401;SDS011;4238;48.404;9.498;2024-03-23T09:08:02;2.00;;;1.90;;
8401;SDS011;4238;48.404;9.498;2024-03-23T09:10:29;2.57;;;1.97;;
8401;SDS011;4238;48.404;9.498;2024-03-23T09:12:56;2.63;;;2.43;;
8401;SDS011;4238;48.404;9.498;2024-03-23T09:15:23;2.50;;;2.30;;
8401;SDS011;4238;48.404;9.498;2024-03-23T09:17:49;4.43;;;3.77;;
8401;SDS011;4238;48.404;9.498;2024-03-23T09:20:16;3.50;;;2.43;;
8401;SDS011;4238;48.404;9.498;2024-03-23T09:22:42;2.83;;;2.60;;
8401;SDS011;4238;48.404;9.498;2024-03-23T09:25:09;2.87;;;2.57;;
8401;SDS011;4238;48.404;9.498;2024-03-23T09:27:35;6.37;;;2.63;;
8401;SDS011;4238;48.404;9.498;2024-03-23T09:30:04;3.20;;;2.53;;
8401;SDS011;4238;48.404;9.498;2024-03-23T09:32:31;4.77;;;3.13;;
8401;SDS011;4238;48.404;9.498;2024-03-23T09:34:58;4.43;;;2.90;;
8401;SDS011;4238;48.404;9.498;2024-03-23T09:37:24;3.20;;;2.90;;
8401;SDS011;4238;48.404;9.498;2024-03-23T09:39:50;4.33;;;3.93;;
8401;SDS011;4238;48.404;9.498;2024-03-23T09:42:16;3.77;;;3.00;;
8401;SDS011;4238;48.404;9.498;2024-03-23T09:44:43;4.10;;;3.60;;
8401;SDS011;4238;48.404;9.498;2024-03-23T09:47:11;5.20;;;4.70;;
8401;SDS011;4238;48.404;9.498;2024-03-23T09:49:38;4.20;;;3.80;;
8401;SDS011;4238;48.404;9.498;2024-03-23T09:52:05;10.20;;;6.30;;
8401;SDS011;4238;48.404;9.498;2024-03-23T09:54:32;8.13;;;5.80;;
8401;SDS011;4238;48.404;9.498;2024-03-23T09:56:58;13.03;;;7.27;;
8401;SDS011;4238;48.404;9.498;2024-03-23T09:59:25;7.33;;;5.30;;
8401;SDS011;4238;48.404;9.498;2024-03-23T10:01:51;6.60;;;4.40;;
8401;SDS011;4238;48.404;9.498;2024-03-23T10:04:39;5.67;;;4.27;;
8401;SDS011;4238;48.404;9.498;2024-03-23T10:07:12;5.20;;;4.37;;
8401;SDS011;4238;48.404;9.498;2024-03-23T10:09:39;4.20;;;3.70;;
8401;SDS011;4238;48.404;9.498;2024-03-23T10:12:09;6.70;;;4.30;;
8401;SDS011;4238;48.404;9.498;2024-03-23T10:14:37;5.33;;;4.67;;
8401;SDS011;4238;48.404;9.498;2024-03-23T10:17:13;6.17;;;4.07;;
8401;SDS011;4238;48.404;9.498;2024-03-23T10:19:44;7.63;;;4.70;;
8401;SDS011;4238;48.404;9.498;2024-03-23T10:22:12;6.63;;;4.73;;
8401;SDS011;4238;48.404;9.498;2024-03-23T10:24:40;8.17;;;5.70;;
8401;SDS011;4238;48.404;9.498;2024-03-23T10:27:06;5.17;;;4.20;;
8401;SDS011;4238;48.404;9.498;2024-03-23T10:29:34;7.13;;;4.00;;
8401;SDS011;4238;48.404;9.498;2024-03-23T10:32:09;6.37;;;3.57;;
8401;SDS011;4238;48.404;9.498;2024-03-23T10:34:36;6.23;;;4.63;;
8401;SDS011;4238;48.404;9.498;2024-03-23T10:37:05;4.33;;;3.67;;
8401;SDS011;4238;48.404;9.498;2024-03-23T10:39:33;6.07;;;3.63;;
8401;SDS011;4238;48.404;9.498;2024-03-23T10:42:00;4.93;;;4.00;;
8401;SDS011;4238;48.404;9.498;2024-03-23T10:44:32;5.03;;;3.53;;
8401;SDS011;4238;48.404;9.498;2024-03-23T10:46:58;5.50;;;3.80;;
8401;SDS011;4238;48.404;9.498;2024-03-23T10:49:26;3.93;;;3.27;;
8401;SDS011;4238;48.404;9.498;2024-03-23T10:51:54;4.13;;;3.73;;
8401;SDS011;4238;48.404;9.498;2024-03-23T10:54:23;4.03;;;3.50;;
8401;SDS011;4238;48.404;9.498;2024-03-23T10:56:50;4.47;;;3.40;;
8401;SDS011;4238;48.404;9.498;2024-03-23T10:59:19;5.70;;;4.10;;
8401;SDS011;4238;48.404;9.498;2024-03-23T11:01:55;5.67;;;3.87;;
8401;SDS011;4238;48.404;9.498;2024-03-23T11:04:35;6.03;;;4.47;;
8401;SDS011;4238;48.404;9.498;2024-03-23T11:07:01;4.20;;;3.33;;
8401;SDS011;4238;48.404;9.498;2024-03-23T11:09:42;3.97;;;3.57;;
8401;SDS011;4238;48.404;9.498;2024-03-23T11:12:29;4.23;;;3.43;;
8401;SDS011;4238;48.404;9.498;2024-03-23T11:14:59;4.73;;;3.47;;
8401;SDS011;4238;48.404;9.498;2024-03-23T11:17:27;4.90;;;3.17;;
8401;SDS011;4238;48.404;9.498;2024-03-23T11:19:55;3.67;;;3.33;;
8401;SDS011;4238;48.404;9.498;2024-03-23T11:22:38;5.07;;;3.57;;
8401;SDS011;4238;48.404;9.498;2024-03-23T11:25:16;4.87;;;3.97;;
8401;SDS011;4238;48.404;9.498;2024-03-23T11:27:47;5.85;;;3.17;;
8401;SDS011;4238;48.404;9.498;2024-03-23T11:30:14;4.10;;;2.60;;
8401;SDS011;4238;48.404;9.498;2024-03-23T11:32:44;4.37;;;3.37;;
8401;SDS011;4238;48.404;9.498;2024-03-23T11:35:11;4.33;;;3.83;;
8401;SDS011;4238;48.404;9.498;2024-03-23T11:38:02;8.23;;;7.53;;
8401;SDS011;4238;48.404;9.498;2024-03-23T11:40:30;3.00;;;2.70;;
8401;SDS011;4238;48.404;9.498;2024-03-23T11:42:57;2.90;;;2.30;;
8401;SDS011;4238;48.404;9.498;2024-03-23T11:45:23;3.77;;;3.10;;
8401;SDS011;4238;48.404;9.498;2024-03-23T11:48:01;6.83;;;4.30;;
8401;SDS011;4238;48.404;9.498;2024-03-23T11:50:28;3.53;;;2.97;;
8401;SDS011;4238;48.404;9.498;2024-03-23T11:53:05;4.37;;;2.93;;
8401;SDS011;4238;48.404;9.498;2024-03-23T11:55:41;5.80;;;4.10;;
8401;SDS011;4238;48.404;9.498;2024-03-23T11:58:09;4.53;;;3.10;;
8401;SDS011;4238;48.404;9.498;2024-03-23T12:00:41;4.43;;;2.90;;
8401;SDS011;4238;48.404;9.498;2024-03-23T12:03:09;4.93;;;3.43;;
8401;SDS011;4238;48.404;9.498;2024-03-23T12:05:35;6.77;;;3.70;;
8401;SDS011;4238;48.404;9.498;2024-03-23T12:08:16;7.23;;;3.90;;
8401;SDS011;4238;48.404;9.498;2024-03-23T12:10:46;6.03;;;4.40;;
8401;SDS011;4238;48.404;9.498;2024-03-23T12:13:15;4.10;;;3.10;;
8401;SDS011;4238;48.404;9.498;2024-03-23T12:15:45;7.60;;;4.30;;
8401;SDS011;4238;48.404;9.498;2024-03-23T12:18:13;9.30;;;4.97;;
8401;SDS011;4238;48.404;9.498;2024-03-23T12:20:39;5.63;;;3.97;;
8401;SDS011;4238;48.404;9.498;2024-03-23T12:23:09;5.93;;;3.20;;
8401;SDS011;4238;48.404;9.498;2024-03-23T12:25:42;11.13;;;5.37;;
8401;SDS011;4238;48.404;9.498;2024-03-23T12:28:11;6.30;;;3.33;;
8401;SDS011;4238;48.404;9.498;2024-03-23T12:30:39;7.67;;;4.03;;
8401;SDS011;4238;48.404;9.498;2024-03-23T12:33:06;3.13;;;2.80;;
8401;SDS011;4238;48.404;9.498;2024-03-23T12:35:32;2.73;;;2.60;;
8401;SDS011;4238;48.404;9.498;2024-03-23T12:37:59;5.87;;;4.53;;
8401;SDS011;4238;48.404;9.498;2024-03-23T12:40:26;3.77;;;2.67;;
8401;SDS011;4238;48.404;9.498;2024-03-23T12:42:57;4.33;;;3.30;;
8401;SDS011;4238;48.404;9.498;2024-03-23T12:45:25;7.57;;;3.97;;
8401;SDS011;4238;48.404;9.498;2024-03-23T12:47:55;5.93;;;4.10;;
8401;SDS011;4238;48.404;9.498;2024-03-23T12:50:22;3.33;;;2.90;;
8401;SDS011;4238;48.404;9.498;2024-03-23T12:52:48;4.40;;;3.10;;
8401;SDS011;4238;48.404;9.498;2024-03-23T12:55:15;4.03;;;3.07;;
8401;SDS011;4238;48.404;9.498;2024-03-23T12:57:41;10.17;;;6.77;;
8401;SDS011;4238;48.404;9.498;2024-03-23T13:00:13;13.60;;;9.63;;
8401;SDS011;4238;48.404;9.498;2024-03-23T13:02:41;8.50;;;5.00;;
8401;SDS011;4238;48.404;9.498;2024-03-23T13:05:08;4.53;;;3.80;;
8401;SDS011;4238;48.404;9.498;2024-03-23T13:07:34;14.00;;;8.23;;
8401;SDS011;4238;48.404;9.498;2024-03-23T13:10:02;5.07;;;3.37;;
8401;SDS011;4238;48.404;9.498;2024-03-23T13:12:29;5.27;;;4.40;;
8401;SDS011;4238;48.404;9.498;2024-03-23T13:14:56;3.40;;;3.10;;
8401;SDS011;4238;48.404;9.498;2024-03-23T13:17:23;5.97;;;3.93;;
8401;SDS011;4238;48.404;9.498;2024-03-23T13:19:52;3.70;;;3.30;;
8401;SDS011;4238;48.404;9.498;2024-03-23T13:22:18;5.13;;;3.33;;
8401;SDS011;4238;48.404;9.498;2024-03-23T13:24:45;4.57;;;3.20;;
8401;SDS011;4238;48.404;9.498;2024-03-23T13:27:11;5.20;;;3.37;;
8401;SDS011;4238;48.404;9.498;2024-03-23T13:29:38;2.83;;;2.60;;
8401;SDS011;4238;48.404;9.498;2024-03-23T13:32:05;3.40;;;3.10;;
8401;SDS011;4238;48.404;9.498;2024-03-23T13:34:33;3.93;;;3.37;;
8401;SDS011;4238;48.404;9.498;2024-03-23T13:37:00;5.70;;;3.87;;
8401;SDS011;4238;48.404;9.498;2024-03-23T13:39:28;3.77;;;2.57;;
8401;SDS011;4238;48.404;9.498;2024-03-23T13:41:54;3.83;;;2.43;;
8401;SDS011;4238;48.404;9.498;2024-03-23T13:44:21;5.13;;;3.13;;
8401;SDS011;4238;48.404;9.498;2024-03-23T13:46:47;4.73;;;2.73;;
8401;SDS011;4238;48.404;9.498;2024-03-23T13:49:20;3.47;;;2.80;;
8401;SDS011;4238;48.404;9.498;2024-03-23T13:51:53;3.93;;;2.87;;
8401;SDS011;4238;48.404;9.498;2024-03-23T13:54:20;4.97;;;2.60;;
8401;SDS011;4238;48.404;9.498;2024-03-23T13:56:48;3.17;;;2.67;;
8401;SDS011;4238;48.404;9.498;2024-03-23T13:59:15;4.03;;;2.30;;
8401;SDS011;4238;48.404;9.498;2024-03-23T14:01:42;2.83;;;2.57;;
8401;SDS011;4238;48.404;9.498;2024-03-23T14:04:10;5.53;;;2.77;;
8401;SDS011;4238;48.404;9.498;2024-03-23T14:06:36;5.50;;;2.70;;
8401;SDS011;4238;48.404;9.498;2024-03-23T14:09:04;4.00;;;2.60;;
8401;SDS011;4238;48.404;9.498;2024-03-23T14:11:30;7.80;;;4.87;;
8401;SDS011;4238;48.404;9.498;2024-03-23T14:13:59;5.30;;;3.70;;
8401;SDS011;4238;48.404;9.498;2024-03-23T14:16:26;4.97;;;3.07;;
8401;SDS011;4238;48.404;9.498;2024-03-23T14:18:53;6.27;;;3.83;;
8401;SDS011;4238;48.404;9.498;2024-03-23T14:21:19;4.53;;;3.40;;
8401;SDS011;4238;48.404;9.498;2024-03-23T14:23:47;7.23;;;3.83;;
8401;SDS011;4238;48.404;9.498;2024-03-23T14:26:14;4.40;;;2.53;;
8401;SDS011;4238;48.404;9.498;2024-03-23T14:28:42;5.07;;;4.10;;
8401;SDS011;4238;48.404;9.498;2024-03-23T14:31:09;7.20;;;4.03;;
8401;SDS011;4238;48.404;9.498;2024-03-23T14:33:36;5.13;;;3.30;;
8401;SDS011;4238;48.404;9.498;2024-03-23T14:36:04;9.23;;;3.60;;
8401;SDS011;4238;48.404;9.498;2024-03-23T14:38:32;8.50;;;3.70;;
8401;SDS011;4238;48.404;9.498;2024-03-23T14:40:58;4.27;;;2.47;;
8401;SDS011;4238;48.404;9.498;2024-03-23T14:43:27;2.97;;;2.50;;
8401;SDS011;4238;48.404;9.498;2024-03-23T14:48:39;2.97;;;2.60;;
8401;SDS011;4238;48.404;9.498;2024-03-23T14:51:06;2.67;;;2.27;;
8401;SDS011;4238;48.404;9.498;2024-03-23T14:53:39;2.60;;;1.90;;
8401;SDS011;4238;48.404;9.498;2024-03-23T14:56:06;5.60;;;1.97;;
8401;SDS011;4238;48.404;9.498;2024-03-23T14:58:39;2.00;;;1.90;;
8401;SDS011;4238;48.404;9.498;2024-03-23T15:01:08;2.17;;;1.97;;
8401;SDS011;4238;48.404;9.498;2024-03-23T15:03:38;3.63;;;2.60;;
8401;SDS011;4238;48.404;9.498;2024-03-23T15:06:08;2.93;;;1.77;;
8401;SDS011;4238;48.404;9.498;2024-03-23T15:08:36;4.73;;;2.73;;
8401;SDS011;4238;48.404;9.498;2024-03-23T15:11:05;3.77;;;2.50;;
8401;SDS011;4238;48.404;9.498;2024-03-23T15:13:32;2.27;;;1.87;;
8401;SDS011;4238;48.404;9.498;2024-03-23T15:16:00;2.93;;;2.30;;
8401;SDS011;4238;48.404;9.498;2024-03-23T15:18:28;5.90;;;3.73;;
8401;SDS011;4238;48.404;9.498;2024-03-23T15:20:56;8.63;;;4.90;;
8401;SDS011;4238;48.404;9.498;2024-03-23T15:23:27;5.53;;;3.83;;
8401;SDS011;4238;48.404;9.498;2024-03-23T15:25:55;3.13;;;2.30;;
8401;SDS011;4238;48.404;9.498;2024-03-23T15:28:29;2.30;;;1.90;;
8401;SDS011;4238;48.404;9.498;2024-03-23T15:31:04;4.53;;;2.80;;
8401;SDS011;4238;48.404;9.498;2024-03-23T15:33:32;3.33;;;1.77;;
8401;SDS011;4238;48.404;9.498;2024-03-23T15:35:58;2.13;;;1.37;;
8401;SDS011;4238;48.404;9.498;2024-03-23T15:38:25;1.20;;;1.10;;
8401;SDS011;4238;48.404;9.498;2024-03-23T15:40:54;1.33;;;1.30;;
8401;SDS011;4238;48.404;9.498;2024-03-23T15:43:28;2.40;;;2.20;;
8401;SDS011;4238;48.404;9.498;2024-03-23T15:45:56;1.43;;;1.33;;
8401;SDS011;4238;48.404;9.498;2024-03-23T15:48:33;2.10;;;1.90;;
8401;SDS011;4238;48.404;9.498;2024-03-23T15:51:00;2.87;;;2.20;;
8401;SDS011;4238;48.404;9.498;2024-03-23T15:53:31;4.13;;;1.90;;
8401;SDS011;4238;48.404;9.498;2024-03-23T15:55:58;1.40;;;1.13;;
8401;SDS011;4238;48.404;9.498;2024-03-23T15:58:26;3.40;;;2.80;;
8401;SDS011;4238;48.404;9.498;2024-03-23T16:00:55;3.00;;;1.73;;
8401;SDS011;4238;48.404;9.498;2024-03-23T16:03:25;2.80;;;1.50;;
8401;SDS011;4238;48.404;9.498;2024-03-23T16:06:01;1.40;;;1.30;;
8401;SDS011;4238;48.404;9.498;2024-03-23T16:08:29;2.43;;;1.83;;
8401;SDS011;4238;48.404;9.498;2024-03-23T16:10:59;1.83;;;1.70;;
8401;SDS011;4238;48.404;9.498;2024-03-23T16:13:27;2.20;;;2.07;;
8401;SDS011;4238;48.404;9.498;2024-03-23T16:15:56;3.90;;;2.20;;
8401;SDS011;4238;48.404;9.498;2024-03-23T16:18:24;4.63;;;2.63;;
8401;SDS011;4238;48.404;9.498;2024-03-23T16:20:55;3.27;;;2.10;;
8401;SDS011;4238;48.404;9.498;2024-03-23T16:23:23;1.70;;;1.60;;
8401;SDS011;4238;48.404;9.498;2024-03-23T16:25:51;2.77;;;1.77;;
8401;SDS011;4238;48.404;9.498;2024-03-23T16:28:26;2.30;;;2.10;;
8401;SDS011;4238;48.404;9.498;2024-03-23T16:30:56;4.07;;;3.40;;
8401;SDS011;4238;48.404;9.498;2024-03-23T16:33:25;7.93;;;6.70;;
8401;SDS011;4238;48.404;9.498;2024-03-23T16:35:56;12.93;;;7.70;;
8401;SDS011;4238;48.404;9.498;2024-03-23T16:38:24;12.87;;;8.50;;
8401;SDS011;4238;48.404;9.498;2024-03-23T16:40:54;7.47;;;5.63;;
8401;SDS011;4238;48.404;9.498;2024-03-23T16:43:25;3.73;;;3.40;;
8401;SDS011;4238;48.404;9.498;2024-03-23T16:45:52;4.83;;;3.87;;
8401;SDS011;4238;48.404;9.498;2024-03-23T16:48:22;4.57;;;2.90;;
8401;SDS011;4238;48.404;9.498;2024-03-23T16:50:48;2.47;;;2.10;;
8401;SDS011;4238;48.404;9.498;2024-03-23T16:53:16;1.90;;;1.80;;
8401;SDS011;4238;48.404;9.498;2024-03-23T16:55:42;4.53;;;2.10;;
8401;SDS011;4238;48.404;9.498;2024-03-23T16:58:09;1.80;;;1.70;;
8401;SDS011;4238;48.404;9.498;2024-03-23T17:00:35;4.37;;;3.10;;
8401;SDS011;4238;48.404;9.498;2024-03-23T17:03:02;3.53;;;3.07;;
8401;SDS011;4238;48.404;9.498;2024-03-23T17:05:29;4.70;;;2.30;;
8401;SDS011;4238;48.404;9.498;2024-03-23T17:08:04;1.90;;;1.73;;
8401;SDS011;4238;48.404;9.498;2024-03-23T17:10:32;3.40;;;1.70;;
8401;SDS011;4238;48.404;9.498;2024-03-23T17:12:59;2.93;;;1.60;;
8401;SDS011;4238;48.404;9.498;2024-03-23T17:15:25;2.23;;;1.47;;
8401;SDS011;4238;48.404;9.498;2024-03-23T17:17:53;2.73;;;1.47;;
8401;SDS011;4238;48.404;9.498;2024-03-23T17:20:19;2.53;;;1.83;;
8401;SDS011;4238;48.404;9.498;2024-03-23T17:22:52;3.17;;;1.70;;
8401;SDS011;4238;48.404;9.498;2024-03-23T17:25:19;4.13;;;2.93;;
8401;SDS011;4238;48.404;9.498;2024-03-23T17:27:47;2.50;;;2.20;;
8401;SDS011;4238;48.404;9.498;2024-03-23T17:30:14;4.03;;;1.90;;
8401;SDS011;4238;48.404;9.498;2024-03-23T17:32:42;4.03;;;1.80;;
8401;SDS011;4238;48.404;9.498;2024-03-23T17:35:09;1.73;;;1.63;;
8401;SDS011;4238;48.404;9.498;2024-03-23T17:37:37;1.83;;;1.30;;
8401;SDS011;4238;48.404;9.498;2024-03-23T17:40:04;4.07;;;1.60;;
8401;SDS011;4238;48.404;9.498;2024-03-23T17:42:34;2.73;;;1.50;;
8401;SDS011;4238;48.404;9.498;2024-03-23T17:45:03;2.17;;;1.80;;
8401;SDS011;4238;48.404;9.498;2024-03-23T17:47:35;4.10;;;1.57;;
8401;SDS011;4238;48.404;9.498;2024-03-23T17:50:03;1.87;;;1.70;;
8401;SDS011;4238;48.404;9.498;2024-03-23T17:52:31;8.00;;;4.30;;
8401;SDS011;4238;48.404;9.498;2024-03-23T17:55:02;4.10;;;2.57;;
8401;SDS011;4238;48.404;9.498;2024-03-23T17:57:33;10.37;;;5.27;;
8401;SDS011;4238;48.404;9.498;2024-03-23T18:00:01;13.03;;;7.60;;
8401;SDS011;4238;48.404;9.498;2024-03-23T18:02:36;12.40;;;7.27;;
8401;SDS011;4238;48.404;9.498;2024-03-23T18:05:18;5.10;;;2.57;;
8401;SDS011;4238;48.404;9.498;2024-03-23T18:08:06;6.23;;;3.40;;
8401;SDS011;4238;48.404;9.498;2024-03-23T18:10:40;4.57;;;2.07;;
8401;SDS011;4238;48.404;9.498;2024-03-23T18:13:31;1.50;;;1.40;;
8401;SDS011;4238;48.404;9.498;2024-03-23T18:16:44;2.80;;;2.03;;
8401;SDS011;4238;48.404;9.498;2024-03-23T18:19:15;2.37;;;1.93;;
8401;SDS011;4238;48.404;9.498;2024-03-23T18:25:20;1.40;;;1.30;;
8401;SDS011;4238;48.404;9.498;2024-03-23T18:27:47;4.33;;;1.40;;
8401;SDS011;4238;48.404;9.498;2024-03-23T18:30:15;1.43;;;1.33;;
8401;SDS011;4238;48.404;9.498;2024-03-23T18:32:55;2.13;;;1.07;;
8401;SDS011;4238;48.404;9.498;2024-03-23T18:35:22;1.40;;;1.30;;
8401;SDS011;4238;48.404;9.498;2024-03-23T18:37:59;1.73;;;1.63;;
8401;SDS011;4238;48.404;9.498;2024-03-23T18:40:46;1.23;;;1.13;;
8401;SDS011;4238;48.404;9.498;2024-03-23T18:43:15;1.23;;;1.23;;
8401;SDS011;4238;48.404;9.498;2024-03-23T18:45:45;1.70;;;1.20;;
8401;SDS011;4238;48.404;9.498;2024-03-23T18:48:16;1.30;;;1.30;;
8401;SDS011;4238;48.404;9.498;2024-03-23T18:50:42;3.73;;;1.43;;
8401;SDS011;4238;48.404;9.498;2024-03-23T18:53:09;1.60;;;1.50;;
8401;SDS011;4238;48.404;9.498;2024-03-23T18:55:36;3.73;;;2.40;;
8401;SDS011;4238;48.404;9.498;2024-03-23T18:58:03;2.10;;;1.50;;
8401;SDS011;4238;48.404;9.498;2024-03-23T19:00:29;1.50;;;1.40;;
8401;SDS011;4238;48.404;9.498;2024-03-23T19:02:56;3.60;;;1.23;;
8401;SDS011;4238;48.404;9.498;2024-03-23T19:05:24;1.73;;;1.63;;
8401;SDS011;4238;48.404;9.498;2024-03-23T19:07:51;2.10;;;1.30;;
8401;SDS011;4238;48.404;9.498;2024-03-23T19:10:17;1.47;;;1.37;;
8401;SDS011;4238;48.404;9.498;2024-03-23T19:12:46;1.20;;;0.93;;
8401;SDS011;4238;48.404;9.498;2024-03-23T19:15:12;0.80;;;0.80;;
8401;SDS011;4238;48.404;9.498;2024-03-23T19:17:39;1.70;;;1.60;;
8401;SDS011;4238;48.404;9.498;2024-03-23T19:20:06;1.67;;;1.50;;
8401;SDS011;4238;48.404;9.498;2024-03-23T19:22:35;2.83;;;1.90;;
8401;SDS011;4238;48.404;9.498;2024-03-23T19:25:04;1.80;;;1.27;;
8401;SDS011;4238;48.404;9.498;2024-03-23T19:27:34;1.93;;;1.70;;
8401;SDS011;4238;48.404;9.498;2024-03-23T19:30:04;3.77;;;3.37;;
8401;SDS011;4238;48.404;9.498;2024-03-23T19:32:31;5.63;;;3.77;;
8401;SDS011;4238;48.404;9.498;2024-03-23T19:34:57;2.70;;;2.20;;
8401;SDS011;4238;48.404;9.498;2024-03-23T19:37:24;5.27;;;3.20;;
8401;SDS011;4238;48.404;9.498;2024-03-23T19:39:51;11.60;;;6.13;;
8401;SDS011;4238;48.404;9.498;2024-03-23T19:42:18;3.33;;;2.87;;
8401;SDS011;4238;48.404;9.498;2024-03-23T19:44:44;3.70;;;2.47;;
8401;SDS011;4238;48.404;9.498;2024-03-23T19:47:12;2.57;;;2.37;;
8401;SDS011;4238;48.404;9.498;2024-03-23T19:49:38;4.10;;;2.13;;
8401;SDS011;4238;48.404;9.498;2024-03-23T19:52:06;8.70;;;5.37;;
8401;SDS011;4238;48.404;9.498;2024-03-23T19:54:31;10.40;;;5.60;;
8401;SDS011;4238;48.404;9.498;2024-03-23T19:56:59;6.70;;;4.13;;
8401;SDS011;4238;48.404;9.498;2024-03-23T19:59:25;4.43;;;3.53;;
8401;SDS011;4238;48.404;9.498;2024-03-23T20:01:52;3.07;;;2.03;;
8401;SDS011;4238;48.404;9.498;2024-03-23T20:04:18;1.63;;;1.47;;
8401;SDS011;4238;48.404;9.498;2024-03-23T20:06:45;3.47;;;2.77;;
8401;SDS011;4238;48.404;9.498;2024-03-23T20:09:10;3.73;;;1.53;;
8401;SDS011;4238;48.404;9.498;2024-03-23T20:11:37;1.43;;;1.10;;
8401;SDS011;4238;48.404;9.498;2024-03-23T20:14:04;1.90;;;1.50;;
8401;SDS011;4238;48.404;9.498;2024-03-23T20:16:31;1.47;;;1.00;;
8401;SDS011;4238;48.404;9.498;2024-03-23T20:18:57;1.53;;;1.23;;
8401;SDS011;4238;48.404;9.498;2024-03-23T20:21:24;2.40;;;1.50;;
8401;SDS011;4238;48.404;9.498;2024-03-23T20:23:50;2.80;;;2.27;;
8401;SDS011;4238;48.404;9.498;2024-03-23T20:26:17;6.27;;;3.27;;
8401;SDS011;4238;48.404;9.498;2024-03-23T20:28:43;1.40;;;1.13;;
8401;SDS011;4238;48.404;9.498;2024-03-23T20:31:11;2.80;;;1.57;;
8401;SDS011;4238;48.404;9.498;2024-03-23T20:33:37;2.27;;;1.60;;
8401;SDS011;4238;48.404;9.498;2024-03-23T20:36:04;0.93;;;0.93;;
8401;SDS011;4238;48.404;9.498;2024-03-23T20:38:31;3.33;;;3.03;;
8401;SDS011;4238;48.404;9.498;2024-03-23T20:40:58;1.80;;;1.70;;
8401;SDS011;4238;48.404;9.498;2024-03-23T20:43:24;3.63;;;2.00;;